Time;durP1;ratioP1;P1;durP2;ratioP2;P2;SDS_P1;SDS_P2;PMS_P1;PMS_P2;Temp;Humidity;BMP_temperature;BMP_pressure;BME280_temperature;BME280_humidity;BME280_pressure;Samples;Min_cycle;Max_cycle;Signal;HPM_P1;HPM_P2
2024/03/17 00:01:21;;;;;;;2.58;0.80;;;;;;;;;;5000169;28;20528;-60
2024/03/17 00:04:14;;;;;;;3.55;1.20;;;;;;;;;;5000146;28;20068;-61
2024/03/17 00:07:08;;;;;;;2.58;1.15;;;;;;;;;;4998131;28;20072;-52
2024/03/17 00:09:52;;;;;;;4.53;1.10;;;;;;;;;;4997742;28;20109;-55
2024/03/17 00:12:45;;;;;;;3.58;1.02;;;;;;;;;;4996775;28;20110;-53
2024/03/17 00:15:32;;;;;;;2.88;0.93;;;;;;;;;;5000490;28;20073;-55
2024/03/17 00:18:05;;;;;;;3.97;0.82;;;;;;;;;;4999788;28;22118;-53
2024/03/17 00:20:38;;;;;;;2.78;0.98;;;;;;;;;;4999726;28;20053;-49
2024/03/17 00:23:06;;;;;;;2.05;0.68;;;;;;;;;;4999126;28;20056;-60
2024/03/17 00:25:39;;;;;;;4.80;0.80;;;;;;;;;;4995398;28;20396;-59
2024/03/17 00:28:06;;;;;;;3.92;0.70;;;;;;;;;;4996596;28;20053;-58
2024/03/17 00:30:58;;;;;;;2.80;0.90;;;;;;;;;;4995112;28;20061;-58
2024/03/17 00:33:45;;;;;;;7.53;0.90;;;;;;;;;;4993430;28;20499;-53
2024/03/17 00:36:37;;;;;;;2.00;0.68;;;;;;;;;;5000862;28;20479;-59
2024/03/17 00:39:23;;;;;;;2.03;0.88;;;;;;;;;;4999250;28;20053;-60
2024/03/17 00:42:16;;;;;;;3.00;1.02;;;;;;;;;;5010270;28;21307;-59
2024/03/17 00:45:10;;;;;;;3.65;1.10;;;;;;;;;;5003302;28;20432;-59
2024/03/17 00:48:02;;;;;;;4.13;1.20;;;;;;;;;;4992423;28;20061;-58
2024/03/17 00:50:54;;;;;;;10.60;1.23;;;;;;;;;;4998777;28;20115;-60
2024/03/17 00:53:47;;;;;;;4.22;1.30;;;;;;;;;;5000038;28;20100;-60
2024/03/17 00:56:33;;;;;;;6.90;1.35;;;;;;;;;;4992968;28;21064;-60
2024/03/17 00:59:28;;;;;;;3.70;1.13;;;;;;;;;;4999659;28;20130;-60
2024/03/17 01:02:17;;;;;;;5.00;1.20;;;;;;;;;;4993216;28;20054;-53
2024/03/17 01:05:17;;;;;;;4.95;1.25;;;;;;;;;;5017612;28;20331;-58
2024/03/17 01:08:03;;;;;;;3.78;0.80;;;;;;;;;;5016569;28;20423;-60
2024/03/17 01:10:58;;;;;;;2.22;0.80;;;;;;;;;;5016602;28;20060;-58
2024/03/17 01:13:42;;;;;;;4.55;0.88;;;;;;;;;;5012936;28;20656;-58
2024/03/17 01:16:36;;;;;;;2.92;1.23;;;;;;;;;;5019268;28;20053;-57
2024/03/17 01:19:22;;;;;;;6.90;1.02;;;;;;;;;;5013983;28;20053;-60
2024/03/17 01:22:14;;;;;;;5.10;1.10;;;;;;;;;;5013584;28;20069;-60
2024/03/17 01:25:00;;;;;;;5.03;1.10;;;;;;;;;;5013363;28;20060;-60
2024/03/17 01:27:53;;;;;;;1.55;0.77;;;;;;;;;;5015087;28;20065;-60
2024/03/17 01:30:40;;;;;;;1.83;0.75;;;;;;;;;;5016587;28;20538;-52
2024/03/17 01:33:32;;;;;;;0.90;0.60;;;;;;;;;;5014432;28;20124;-57
2024/03/17 01:36:18;;;;;;;2.45;0.70;;;;;;;;;;5017498;28;20535;-58
2024/03/17 01:39:11;;;;;;;1.73;0.88;;;;;;;;;;5018005;28;20061;-60
2024/03/17 01:41:58;;;;;;;1.85;0.73;;;;;;;;;;5022089;28;20120;-58
2024/03/17 01:44:51;;;;;;;3.30;1.30;;;;;;;;;;5021456;28;20055;-57
2024/03/17 01:47:44;;;;;;;1.52;0.82;;;;;;;;;;5017411;28;20053;-61
2024/03/17 01:50:37;;;;;;;5.35;0.93;;;;;;;;;;5021730;28;20131;-60
2024/03/17 01:53:27;;;;;;;4.88;0.90;;;;;;;;;;5016357;28;20530;-60
2024/03/17 01:56:19;;;;;;;1.63;0.70;;;;;;;;;;5014804;28;20066;-59
2024/03/17 01:59:06;;;;;;;1.85;0.93;;;;;;;;;;5018515;28;20053;-67
2024/03/17 02:02:00;;;;;;;2.63;0.95;;;;;;;;;;5017752;28;20088;-51
2024/03/17 02:04:52;;;;;;;4.38;0.73;;;;;;;;;;5015052;28;20077;-52
2024/03/17 02:07:45;;;;;;;;;;;;;;;;;;5020202;28;20050;-52
2024/03/17 02:10:38;;;;;;;5.40;1.10;;;;;;;;;;5013339;28;19932;-53
2024/03/17 02:13:31;;;;;;;2.97;0.77;;;;;;;;;;5015074;28;20057;-53
2024/03/17 02:16:18;;;;;;;6.95;1.27;;;;;;;;;;5013126;28;20498;-68
2024/03/17 02:19:10;;;;;;;1.85;0.65;;;;;;;;;;5016655;28;20057;-68
2024/03/17 02:21:57;;;;;;;5.82;0.98;;;;;;;;;;5012989;28;20264;-68
2024/03/17 02:24:50;;;;;;;1.15;0.60;;;;;;;;;;5017506;28;20061;-68
2024/03/17 02:27:43;;;;;;;1.75;0.80;;;;;;;;;;5018156;28;20103;-61
2024/03/17 02:30:30;;;;;;;3.67;0.88;;;;;;;;;;5018253;28;20599;-63
2024/03/17 02:33:23;;;;;;;3.47;0.80;;;;;;;;;;5031311;28;20072;-63
2024/03/17 02:36:09;;;;;;;6.07;0.80;;;;;;;;;;5016919;28;20076;-64
2024/03/17 02:41:46;;;;;;;7.63;0.90;;;;;;;;;;5020914;28;20065;-63
2024/03/17 02:44:40;;;;;;;2.10;1.00;;;;;;;;;;5017139;28;20057;-61
2024/03/17 02:47:25;;;;;;;2.33;1.05;;;;;;;;;;5011293;28;20205;-61
2024/03/17 02:50:18;;;;;;;2.53;0.60;;;;;;;;;;5015443;28;20050;-61
2024/03/17 02:53:04;;;;;;;3.42;1.00;;;;;;;;;;5018140;28;20060;-61
2024/03/17 02:55:57;;;;;;;1.23;0.80;;;;;;;;;;5019216;28;20065;-68
2024/03/17 02:58:44;;;;;;;1.98;0.90;;;;;;;;;;5014136;28;20143;-57
2024/03/17 03:01:36;;;;;;;4.65;1.05;;;;;;;;;;5013855;28;20053;-55
2024/03/17 03:04:29;;;;;;;4.53;0.75;;;;;;;;;;5014198;28;20447;-54
2024/03/17 03:07:29;;;;;;;5.25;1.15;;;;;;;;;;4998906;28;20046;-57
2024/03/17 03:10:15;;;;;;;3.53;1.15;;;;;;;;;;4996970;28;20050;-57
2024/03/17 03:13:08;;;;;;;3.67;1.00;;;;;;;;;;4993630;28;20054;-64
2024/03/17 03:15:54;;;;;;;3.30;0.80;;;;;;;;;;4994975;28;20060;-64
2024/03/17 03:18:47;;;;;;;3.20;1.33;;;;;;;;;;4996902;28;20062;-65
2024/03/17 03:21:33;;;;;;;5.03;1.20;;;;;;;;;;4997395;28;20546;-64
2024/03/17 03:24:26;;;;;;;0.90;0.80;;;;;;;;;;5002689;28;20054;-59
2024/03/17 03:27:13;;;;;;;3.15;1.08;;;;;;;;;;4996850;28;20062;-58
2024/03/17 03:30:08;;;;;;;2.97;1.00;;;;;;;;;;4996569;28;20057;-56
2024/03/17 03:32:52;;;;;;;3.75;0.93;;;;;;;;;;4995501;28;20814;-57
2024/03/17 03:35:45;;;;;;;3.55;0.98;;;;;;;;;;4999084;28;20503;-58
2024/03/17 03:38:30;;;;;;;4.57;0.80;;;;;;;;;;4997907;28;20061;-57
2024/03/17 03:41:26;;;;;;;6.38;1.20;;;;;;;;;;4997316;28;20108;-55
2024/03/17 03:44:10;;;;;;;2.90;0.88;;;;;;;;;;4995527;28;20093;-51
2024/03/17 03:47:02;;;;;;;3.05;0.90;;;;;;;;;;4995679;28;20431;-54
2024/03/17 03:49:48;;;;;;;2.95;1.02;;;;;;;;;;4993500;28;20054;-53
2024/03/17 03:52:41;;;;;;;4.13;1.20;;;;;;;;;;4996850;28;20061;-51
2024/03/17 03:55:34;;;;;;;0.80;0.70;;;;;;;;;;4999163;28;20049;-58
2024/03/17 03:58:21;;;;;;;4.25;0.98;;;;;;;;;;4993406;28;20069;-56
2024/03/17 04:01:21;;;;;;;2.67;1.00;;;;;;;;;;4993543;28;20058;-56
2024/03/17 04:03:59;;;;;;;2.22;0.75;;;;;;;;;;4992038;28;20057;-58
2024/03/17 04:06:59;;;;;;;1.77;0.85;;;;;;;;;;4992029;28;20482;-56
2024/03/17 04:09:45;;;;;;;2.53;0.88;;;;;;;;;;4998736;28;20057;-61
2024/03/17 04:12:38;;;;;;;5.75;1.00;;;;;;;;;;4995561;28;20053;-61
2024/03/17 04:15:24;;;;;;;6.57;1.08;;;;;;;;;;4996983;28;20400;-61
2024/03/17 04:18:17;;;;;;;4.68;1.20;;;;;;;;;;4998309;28;20061;-61
2024/03/17 04:21:05;;;;;;;4.10;1.15;;;;;;;;;;4999304;28;20065;-61
2024/03/17 04:23:57;;;;;;;1.42;0.98;;;;;;;;;;5003040;28;20080;-48
2024/03/17 04:26:43;;;;;;;6.18;1.08;;;;;;;;;;4995987;28;20066;-48
2024/03/17 04:29:36;;;;;;;2.08;0.80;;;;;;;;;;5000239;28;20050;-46
2024/03/17 04:32:30;;;;;;;1.70;0.88;;;;;;;;;;4999083;28;20057;-49
2024/03/17 04:35:21;;;;;;;4.97;1.33;;;;;;;;;;4999272;28;20057;-51
2024/03/17 04:38:07;;;;;;;0.85;0.82;;;;;;;;;;5000757;28;20072;-64
2024/03/17 04:41:09;;;;;;;3.95;0.90;;;;;;;;;;5001020;28;20057;-63
2024/03/17 04:43:53;;;;;;;4.63;1.35;;;;;;;;;;4997576;28;20061;-63
2024/03/17 04:46:46;;;;;;;4.82;1.02;;;;;;;;;;4997184;28;20112;-64
2024/03/17 04:49:31;;;;;;;4.25;1.20;;;;;;;;;;4998448;28;20132;-59
2024/03/17 04:52:24;;;;;;;1.63;0.90;;;;;;;;;;4996897;28;21095;-61
2024/03/17 04:55:10;;;;;;;4.25;1.10;;;;;;;;;;4995630;28;20060;-61
2024/03/17 04:58:03;;;;;;;3.35;1.10;;;;;;;;;;4997761;28;20069;-60
2024/03/17 05:00:49;;;;;;;2.20;0.82;;;;;;;;;;4995783;28;20065;-61
2024/03/17 05:03:42;;;;;;;7.90;1.27;;;;;;;;;;4997006;28;20068;-61
2024/03/17 05:06:35;;;;;;;2.13;1.05;;;;;;;;;;5015940;28;20062;-70
2024/03/17 05:09:27;;;;;;;3.47;1.88;;;;;;;;;;5015562;28;20058;-69
2024/03/17 05:12:20;;;;;;;3.47;1.38;;;;;;;;;;5016385;28;20050;-69
2024/03/17 05:15:13;;;;;;;3.67;1.55;;;;;;;;;;5006902;28;20112;-69
2024/03/17 05:18:06;;;;;;;5.80;1.20;;;;;;;;;;5015663;28;20065;-58
2024/03/17 05:20:59;;;;;;;5.28;1.23;;;;;;;;;;5012140;28;20057;-58
2024/03/17 05:23:51;;;;;;;3.47;1.20;;;;;;;;;;5012779;28;20065;-55
2024/03/17 05:26:37;;;;;;;7.90;1.75;;;;;;;;;;5015122;28;20065;-56
2024/03/17 05:29:30;;;;;;;5.85;1.45;;;;;;;;;;5012574;28;20131;-57
2024/03/17 05:32:16;;;;;;;2.75;1.10;;;;;;;;;;5008934;28;20096;-54
2024/03/17 05:35:09;;;;;;;10.63;1.58;;;;;;;;;;5014958;28;20053;-55
2024/03/17 05:38:02;;;;;;;4.30;1.17;;;;;;;;;;5014501;28;20061;-54
2024/03/17 05:40:55;;;;;;;5.28;1.30;;;;;;;;;;5009269;28;20062;-57
2024/03/17 05:43:48;;;;;;;3.38;1.58;;;;;;;;;;5007636;28;20061;-55
2024/03/17 05:46:40;;;;;;;7.22;1.10;;;;;;;;;;5025293;28;20061;-54
2024/03/17 05:49:33;;;;;;;3.20;1.15;;;;;;;;;;5005166;28;20054;-60
2024/03/17 05:52:19;;;;;;;3.90;1.33;;;;;;;;;;5011602;28;20053;-60
2024/03/17 05:55:12;;;;;;;7.07;1.08;;;;;;;;;;5013650;28;20815;-60
2024/03/17 05:57:58;;;;;;;3.72;1.40;;;;;;;;;;5013870;28;20065;-60
2024/03/17 06:00:51;;;;;;;9.63;1.80;;;;;;;;;;5014056;28;20057;-61
2024/03/17 06:03:38;;;;;;;5.90;1.52;;;;;;;;;;5017417;28;20057;-55
2024/03/17 06:06:37;;;;;;;10.27;1.63;;;;;;;;;;5016769;28;20161;-57
2024/03/17 06:09:23;;;;;;;2.15;0.90;;;;;;;;;;5016367;28;20065;-56
2024/03/17 06:12:16;;;;;;;1.73;1.27;;;;;;;;;;5016073;28;20111;-52
2024/03/17 06:15:03;;;;;;;2.85;1.23;;;;;;;;;;5014539;28;20057;-51
2024/03/17 06:17:56;;;;;;;3.08;1.00;;;;;;;;;;5011586;28;20507;-50
2024/03/17 06:20:43;;;;;;;3.60;0.95;;;;;;;;;;5014136;28;20061;-56
2024/03/17 06:23:35;;;;;;;4.25;1.17;;;;;;;;;;5015029;28;20065;-52
2024/03/17 06:26:21;;;;;;;5.45;1.65;;;;;;;;;;5011346;28;20074;-54
2024/03/17 06:29:14;;;;;;;2.92;1.35;;;;;;;;;;5014562;28;20431;-53
2024/03/17 06:32:00;;;;;;;3.17;1.17;;;;;;;;;;5017172;28;20064;-47
2024/03/17 06:34:53;;;;;;;2.70;1.23;;;;;;;;;;5008288;28;20423;-48
2024/03/17 06:37:46;;;;;;;4.50;1.48;;;;;;;;;;5024978;28;20062;-52
2024/03/17 06:40:32;;;;;;;2.08;1.02;;;;;;;;;;5011696;28;20539;-51
2024/03/17 06:43:25;;;;;;;2.88;0.98;;;;;;;;;;5015789;28;20415;-58
2024/03/17 06:46:11;;;;;;;8.55;1.45;;;;;;;;;;5014630;28;20100;-53
2024/03/17 06:49:04;;;;;;;1.63;1.08;;;;;;;;;;5018655;28;20073;-54
2024/03/17 06:52:03;;;;;;;1.73;0.80;;;;;;;;;;5018651;28;20053;-50
2024/03/17 06:54:57;;;;;;;3.38;1.00;;;;;;;;;;5014661;28;20065;-52
2024/03/17 06:57:46;;;;;;;1.75;0.82;;;;;;;;;;5013251;28;20057;-53
2024/03/17 07:00:38;;;;;;;2.03;0.90;;;;;;;;;;5013673;28;20065;-54
2024/03/17 07:03:25;;;;;;;5.13;1.10;;;;;;;;;;5012500;28;20053;-51
2024/03/17 07:06:26;;;;;;;2.05;0.80;;;;;;;;;;4997361;28;20057;-52
2024/03/17 07:09:11;;;;;;;0.68;0.68;;;;;;;;;;4998269;28;20507;-51
2024/03/17 07:12:04;;;;;;;3.03;0.80;;;;;;;;;;5002504;28;20059;-63
2024/03/17 07:14:57;;;;;;;3.38;1.15;;;;;;;;;;5011524;28;20057;-52
2024/03/17 07:17:51;;;;;;;4.68;1.05;;;;;;;;;;4998341;28;20058;-53
2024/03/17 07:20:43;;;;;;;4.45;0.88;;;;;;;;;;5013258;28;20085;-53
2024/03/17 07:23:29;;;;;;;1.25;0.68;;;;;;;;;;4998640;28;20058;-51
2024/03/17 07:26:22;;;;;;;4.60;1.00;;;;;;;;;;4997854;28;20053;-51
2024/03/17 07:29:08;;;;;;;1.40;0.77;;;;;;;;;;4995907;28;20057;-49
2024/03/17 07:32:02;;;;;;;1.13;0.88;;;;;;;;;;5009752;28;20062;-50
2024/03/17 07:34:49;;;;;;;3.53;0.90;;;;;;;;;;4993995;28;20069;-51
2024/03/17 07:37:40;;;;;;;2.03;1.10;;;;;;;;;;4994275;28;20612;-50
2024/03/17 07:40:26;;;;;;;2.58;1.05;;;;;;;;;;5000777;28;20062;-61
2024/03/17 07:43:19;;;;;;;1.75;0.85;;;;;;;;;;4999783;28;20061;-64
2024/03/17 07:46:12;;;;;;;5.15;0.77;;;;;;;;;;4998228;28;20060;-64
2024/03/17 07:49:02;;;;;;;2.00;0.85;;;;;;;;;;4998640;28;20466;-65
2024/03/17 07:51:48;;;;;;;1.38;0.60;;;;;;;;;;5000033;28;20062;-64
2024/03/17 07:54:41;;;;;;;4.18;1.15;;;;;;;;;;4998869;28;20061;-65
2024/03/17 07:57:27;;;;;;;2.80;1.13;;;;;;;;;;4998497;28;20065;-61
2024/03/17 08:00:21;;;;;;;1.05;0.70;;;;;;;;;;5008381;28;20065;-61
2024/03/17 08:03:07;;;;;;;9.32;1.00;;;;;;;;;;5000266;28;20439;-61
2024/03/17 08:05:59;;;;;;;4.22;0.73;;;;;;;;;;5019565;28;20061;-61
2024/03/17 08:08:52;;;;;;;2.47;0.75;;;;;;;;;;5001732;28;20069;-64
2024/03/17 08:11:46;;;;;;;2.58;0.68;;;;;;;;;;5001726;28;20064;-63
2024/03/17 08:14:38;;;;;;;3.00;0.77;;;;;;;;;;4999513;28;20061;-62
2024/03/17 08:17:31;;;;;;;1.90;0.70;;;;;;;;;;4997892;28;20072;-63
2024/03/17 08:20:18;;;;;;;2.08;0.90;;;;;;;;;;4997699;28;20467;-63
2024/03/17 08:23:10;;;;;;;1.70;0.80;;;;;;;;;;4999622;28;20059;-63
2024/03/17 08:25:57;;;;;;;2.05;0.80;;;;;;;;;;4993670;28;20128;-60
2024/03/17 08:28:49;;;;;;;3.13;0.60;;;;;;;;;;5013385;28;20715;-61
2024/03/17 08:31:36;;;;;;;3.53;1.10;;;;;;;;;;4996564;28;20058;-60
2024/03/17 08:34:28;;;;;;;3.30;0.80;;;;;;;;;;4997895;28;20064;-59
2024/03/17 08:37:14;;;;;;;1.27;0.70;;;;;;;;;;4996635;28;20065;-61
2024/03/17 08:40:08;;;;;;;5.65;1.10;;;;;;;;;;4996604;28;20655;-62
2024/03/17 08:42:54;;;;;;;4.95;0.73;;;;;;;;;;4995881;28;20507;-61
2024/03/17 08:45:55;;;;;;;1.77;0.63;;;;;;;;;;4997631;28;20061;-61
2024/03/17 08:48:42;;;;;;;2.67;1.00;;;;;;;;;;4992530;28;20524;-61
2024/03/17 08:51:34;;;;;;;3.30;1.00;;;;;;;;;;4995930;28;20434;-61
2024/03/17 08:54:27;;;;;;;2.15;0.77;;;;;;;;;;4998276;28;20073;-54
2024/03/17 08:57:14;;;;;;;3.28;0.90;;;;;;;;;;5012880;28;20494;-51
2024/03/17 09:00:08;;;;;;;3.88;1.45;;;;;;;;;;5009793;28;20060;-54
2024/03/17 09:02:53;;;;;;;1.50;0.70;;;;;;;;;;4994866;28;20065;-49
2024/03/17 09:05:54;;;;;;;1.38;0.73;;;;;;;;;;4994533;28;20062;-47
2024/03/17 09:08:39;;;;;;;3.55;0.98;;;;;;;;;;4997085;28;20053;-64
2024/03/17 09:11:32;;;;;;;1.67;0.90;;;;;;;;;;5013108;28;20073;-64
2024/03/17 09:14:18;;;;;;;2.00;0.88;;;;;;;;;;4995289;28;20420;-64
2024/03/17 09:17:11;;;;;;;2.75;0.73;;;;;;;;;;4989319;28;20155;-65
2024/03/17 09:20:04;;;;;;;1.75;0.88;;;;;;;;;;5005829;28;20589;-64
2024/03/17 09:22:51;;;;;;;1.20;0.80;;;;;;;;;;4994471;28;20470;-63
2024/03/17 09:25:43;;;;;;;2.60;0.80;;;;;;;;;;4993262;28;20065;-52
2024/03/17 09:28:24;;;;;;;6.00;1.08;;;;;;;;;;4994582;28;20120;-48
2024/03/17 09:30:57;;;;;;;3.40;0.93;;;;;;;;;;5001782;28;20053;-49
2024/03/17 09:33:23;;;;;;;1.25;0.98;;;;;;;;;;4996730;28;20057;-49
2024/03/17 09:36:01;;;;;;;2.90;0.90;;;;;;;;;;5001478;28;20502;-49
2024/03/17 09:38:30;;;;;;;3.17;0.90;;;;;;;;;;4997454;28;20064;-53
2024/03/17 09:41:03;;;;;;;3.22;0.80;;;;;;;;;;4997627;28;20070;-59
2024/03/17 09:43:32;;;;;;;2.03;0.80;;;;;;;;;;4998508;28;20053;-51
2024/03/17 09:45:59;;;;;;;0.85;0.60;;;;;;;;;;4990666;28;20065;-61
2024/03/17 09:48:32;;;;;;;2.67;0.88;;;;;;;;;;4993859;28;20061;-61
2024/03/17 09:51:21;;;;;;;3.47;1.17;;;;;;;;;;4994148;28;20072;-59
2024/03/17 09:54:18;;;;;;;2.90;0.60;;;;;;;;;;4990581;28;20069;-61
2024/03/17 09:57:07;;;;;;;1.70;0.68;;;;;;;;;;4994799;28;20057;-61
2024/03/17 10:00:04;;;;;;;1.67;0.90;;;;;;;;;;4987790;28;20072;-47
2024/03/17 10:02:50;;;;;;;2.88;0.80;;;;;;;;;;4980335;28;20451;-60
2024/03/17 10:06:06;;;;;;;1.27;0.75;;;;;;;;;;4998889;28;20068;-59
2024/03/17 10:08:54;;;;;;;1.38;0.65;;;;;;;;;;5000506;28;20057;-61
2024/03/17 10:11:47;;;;;;;3.75;0.90;;;;;;;;;;4989279;28;20065;-60
2024/03/17 10:14:33;;;;;;;2.38;0.90;;;;;;;;;;4994220;28;20069;-60
2024/03/17 10:17:31;;;;;;;1.27;0.57;;;;;;;;;;4998080;28;20065;-49
2024/03/17 10:20:23;;;;;;;2.03;0.70;;;;;;;;;;4996148;28;20061;-60
2024/03/17 10:23:14;;;;;;;1.98;0.57;;;;;;;;;;4998118;28;20131;-63
2024/03/17 10:25:59;;;;;;;3.17;0.77;;;;;;;;;;4996653;28;20119;-64
2024/03/17 10:28:52;;;;;;;0.88;0.50;;;;;;;;;;5014031;28;20054;-64
2024/03/17 10:31:45;;;;;;;5.75;0.70;;;;;;;;;;5017268;28;20537;-63
2024/03/17 10:34:38;;;;;;;1.13;0.50;;;;;;;;;;5013900;28;20053;-63
2024/03/17 10:37:27;;;;;;;1.70;0.80;;;;;;;;;;5002805;28;20493;-47
2024/03/17 10:40:20;;;;;;;3.40;0.75;;;;;;;;;;5002454;28;20115;-62
2024/03/17 10:43:07;;;;;;;1.42;0.63;;;;;;;;;;4996642;28;20111;-62
2024/03/17 10:45:59;;;;;;;2.88;0.82;;;;;;;;;;5010798;28;20077;-62
2024/03/17 10:48:47;;;;;;;1.25;0.95;;;;;;;;;;4991361;28;20069;-62
2024/03/17 10:51:40;;;;;;;4.28;0.85;;;;;;;;;;4997489;28;20049;-62
2024/03/17 10:54:20;;;;;;;1.13;0.50;;;;;;;;;;4994007;28;20045;-59
2024/03/17 10:57:33;;;;;;;1.10;0.68;;;;;;;;;;4995583;28;20124;-62
2024/03/17 11:00:23;;;;;;;2.88;0.80;;;;;;;;;;4997274;28;20061;-49
2024/03/17 11:03:17;;;;;;;2.78;1.30;;;;;;;;;;4997107;28;20064;-51
2024/03/17 11:06:10;;;;;;;4.00;1.25;;;;;;;;;;4992163;28;20518;-48
2024/03/17 11:09:03;;;;;;;2.35;1.08;;;;;;;;;;4993357;28;20058;-51
2024/03/17 11:11:49;;;;;;;3.92;0.73;;;;;;;;;;4992158;28;20512;-51
2024/03/17 11:14:42;;;;;;;5.13;0.95;;;;;;;;;;4995076;28;20365;-60
2024/03/17 11:17:28;;;;;;;2.00;0.70;;;;;;;;;;4991953;28;20756;-62
2024/03/17 11:20:26;;;;;;;1.60;0.65;;;;;;;;;;4994199;28;20062;-62
2024/03/17 11:23:26;;;;;;;4.25;1.15;;;;;;;;;;4995536;28;20057;-61
2024/03/17 11:26:27;;;;;;;2.05;0.57;;;;;;;;;;4992907;28;20080;-63
2024/03/17 11:29:29;;;;;;;1.92;0.57;;;;;;;;;;4995642;28;20112;-61
2024/03/17 11:32:27;;;;;;;1.50;0.57;;;;;;;;;;4995855;28;20872;-65
2024/03/17 11:35:15;;;;;;;0.55;0.55;;;;;;;;;;4996901;28;20073;-60
2024/03/17 11:38:07;;;;;;;4.88;0.52;;;;;;;;;;4993694;28;20057;-60
2024/03/17 11:41:13;;;;;;;0.85;0.70;;;;;;;;;;4993035;28;20095;-61
2024/03/17 11:44:19;;;;;;;3.15;1.05;;;;;;;;;;4992272;28;20239;-61
2024/03/17 11:47:06;;;;;;;2.60;0.70;;;;;;;;;;4992242;28;20069;-61
2024/03/17 11:49:58;;;;;;;1.42;0.73;;;;;;;;;;4992741;28;20061;-61
2024/03/17 11:52:48;;;;;;;2.63;0.68;;;;;;;;;;4989630;28;20526;-61
2024/03/17 11:55:37;;;;;;;1.50;0.50;;;;;;;;;;4990528;28;20056;-61
2024/03/17 11:58:40;;;;;;;1.08;0.80;;;;;;;;;;4975397;28;20057;-61
2024/03/17 12:01:38;;;;;;;1.67;0.50;;;;;;;;;;4975362;28;20058;-62
2024/03/17 12:04:24;;;;;;;0.93;0.88;;;;;;;;;;4968423;28;20081;-61
2024/03/17 12:07:27;;;;;;;1.40;0.60;;;;;;;;;;4995066;28;20065;-61
2024/03/17 12:10:13;;;;;;;1.45;0.70;;;;;;;;;;4993032;28;20046;-64
2024/03/17 12:13:04;;;;;;;0.95;0.65;;;;;;;;;;4986083;28;20074;-61
2024/03/17 12:15:51;;;;;;;2.00;1.30;;;;;;;;;;4985697;28;20708;-61
2024/03/17 12:18:45;;;;;;;2.10;0.50;;;;;;;;;;4986445;28;20078;-62
2024/03/17 12:21:29;;;;;;;1.35;0.43;;;;;;;;;;4988522;28;20496;-61
2024/03/17 12:24:27;;;;;;;1.50;0.60;;;;;;;;;;4992379;28;20062;-62
2024/03/17 12:27:17;;;;;;;0.40;0.40;;;;;;;;;;4986365;28;20053;-64
2024/03/17 12:30:10;;;;;;;0.80;0.40;;;;;;;;;;4991188;28;20049;-55
2024/03/17 12:32:56;;;;;;;2.33;0.65;;;;;;;;;;4987806;28;20062;-53
2024/03/17 12:35:52;;;;;;;0.70;0.60;;;;;;;;;;4993751;28;20069;-55
2024/03/17 12:38:35;;;;;;;1.48;0.50;;;;;;;;;;4989065;28;20057;-51
2024/03/17 12:41:27;;;;;;;2.30;0.52;;;;;;;;;;4992025;28;20502;-53
2024/03/17 12:44:23;;;;;;;1.45;0.80;;;;;;;;;;4989715;28;20154;-55
2024/03/17 12:47:16;;;;;;;1.25;0.68;;;;;;;;;;4988861;28;20069;-60
2024/03/17 12:50:05;;;;;;;1.27;0.40;;;;;;;;;;4988950;28;20115;-50
2024/03/17 12:52:56;;;;;;;0.30;0.30;;;;;;;;;;5006545;28;20057;-53
2024/03/17 13:01:24;;;;;;;2.50;0.68;;;;;;;;;;4991740;28;20066;-50
2024/03/17 13:04:13;;;;;;;1.45;0.50;;;;;;;;;;4992946;28;20421;-65
2024/03/17 13:07:18;;;;;;;2.00;0.60;;;;;;;;;;4989734;28;20061;-65
2024/03/17 13:10:13;;;;;;;0.90;0.50;;;;;;;;;;4993438;28;20069;-65
2024/03/17 13:13:05;;;;;;;1.13;0.57;;;;;;;;;;4994120;28;20054;-66
2024/03/17 13:15:58;;;;;;;1.13;0.70;;;;;;;;;;4991968;28;20062;-64
2024/03/17 13:18:43;;;;;;;1.23;0.75;;;;;;;;;;4993409;28;20127;-64
2024/03/17 13:21:36;;;;;;;1.30;0.68;;;;;;;;;;4993864;28;20108;-60
2024/03/17 13:24:22;;;;;;;1.10;0.75;;;;;;;;;;4994434;28;20542;-58
2024/03/17 13:27:15;;;;;;;0.60;0.40;;;;;;;;;;4999502;28;20435;-60
2024/03/17 13:30:03;;;;;;;0.63;0.50;;;;;;;;;;4996253;28;20125;-60
2024/03/17 13:33:00;;;;;;;1.08;0.60;;;;;;;;;;4994591;28;20160;-60
2024/03/17 13:35:46;;;;;;;3.50;1.15;;;;;;;;;;4991080;28;20065;-60
2024/03/17 13:38:41;;;;;;;0.77;0.50;;;;;;;;;;4994805;28;20061;-60
2024/03/17 13:41:26;;;;;;;1.52;0.70;;;;;;;;;;4995674;28;20054;-58
2024/03/17 13:44:19;;;;;;;0.75;0.60;;;;;;;;;;4999385;28;20069;-59
2024/03/17 13:47:05;;;;;;;0.40;0.30;;;;;;;;;;4998818;28;20058;-56
2024/03/17 13:49:58;;;;;;;0.60;0.50;;;;;;;;;;5003019;28;20062;-62
2024/03/17 13:52:51;;;;;;;0.43;0.43;;;;;;;;;;5002132;28;20404;-64
2024/03/17 13:55:43;;;;;;;4.32;0.80;;;;;;;;;;4997810;28;20054;-64
2024/03/17 13:58:29;;;;;;;1.02;0.55;;;;;;;;;;4996569;28;20415;-64
2024/03/17 14:01:23;;;;;;;1.17;0.50;;;;;;;;;;4995388;28;20066;-65
2024/03/17 14:04:16;;;;;;;0.85;0.50;;;;;;;;;;4994121;28;20500;-64
2024/03/17 14:07:16;;;;;;;1.70;0.52;;;;;;;;;;4977425;28;20053;-64
2024/03/17 14:10:02;;;;;;;0.40;0.30;;;;;;;;;;4981905;28;20404;-60
2024/03/17 14:12:56;;;;;;;0.60;0.50;;;;;;;;;;4995295;28;20444;-61
2024/03/17 14:15:41;;;;;;;0.47;0.28;;;;;;;;;;4972155;28;20062;-60
2024/03/17 14:18:35;;;;;;;0.70;0.40;;;;;;;;;;4992400;28;20771;-50
2024/03/17 14:21:21;;;;;;;1.27;0.45;;;;;;;;;;4980002;28;20065;-63
2024/03/17 14:24:13;;;;;;;0.40;0.40;;;;;;;;;;4982486;28;20069;-64
2024/03/17 14:26:59;;;;;;;0.30;0.30;;;;;;;;;;4981234;28;20053;-64
2024/03/17 14:29:52;;;;;;;2.47;0.70;;;;;;;;;;4975076;28;20085;-64
2024/03/17 14:32:38;;;;;;;1.65;0.80;;;;;;;;;;4974895;28;20061;-65
2024/03/17 14:35:32;;;;;;;1.02;0.60;;;;;;;;;;4978457;28;20065;-64
2024/03/17 14:38:18;;;;;;;1.35;0.60;;;;;;;;;;4980526;28;20570;-65
2024/03/17 14:41:11;;;;;;;0.95;0.52;;;;;;;;;;4978124;28;20057;-65
2024/03/17 14:43:58;;;;;;;1.35;0.60;;;;;;;;;;4980260;28;20092;-64
2024/03/17 14:46:51;;;;;;;0.75;0.50;;;;;;;;;;4980776;28;20578;-59
2024/03/17 14:49:37;;;;;;;1.08;0.82;;;;;;;;;;4979370;28;20057;-62
2024/03/17 14:52:29;;;;;;;2.85;0.63;;;;;;;;;;4978373;28;20124;-60
2024/03/17 14:55:16;;;;;;;1.15;0.60;;;;;;;;;;4975669;28;20058;-60
2024/03/17 14:58:09;;;;;;;1.35;0.40;;;;;;;;;;4992802;28;20058;-60
2024/03/17 15:00:54;;;;;;;1.50;0.75;;;;;;;;;;4973412;28;20069;-59
2024/03/17 15:03:27;;;;;;;2.10;0.88;;;;;;;;;;4991199;28;20711;-60
2024/03/17 15:06:00;;;;;;;0.85;0.52;;;;;;;;;;4979424;28;20089;-63
2024/03/17 15:08:27;;;;;;;1.10;0.80;;;;;;;;;;4994044;28;20104;-62
2024/03/17 15:11:00;;;;;;;1.95;1.27;;;;;;;;;;4997637;28;20069;-62
2024/03/17 15:13:27;;;;;;;2.50;0.82;;;;;;;;;;4997496;28;20474;-62
2024/03/17 15:15:54;;;;;;;3.58;0.98;;;;;;;;;;4993647;28;20066;-61
2024/03/17 15:18:26;;;;;;;0.50;0.50;;;;;;;;;;4994324;28;20058;-62
2024/03/17 15:21:12;;;;;;;1.38;0.85;;;;;;;;;;4996963;28;21665;-62
2024/03/17 15:24:06;;;;;;;3.42;0.80;;;;;;;;;;4995778;28;20057;-57
2024/03/17 15:26:52;;;;;;;0.98;0.70;;;;;;;;;;4995162;28;20056;-48
2024/03/17 15:29:44;;;;;;;3.58;1.05;;;;;;;;;;4993982;28;20058;-47
2024/03/17 15:32:30;;;;;;;1.48;0.80;;;;;;;;;;4998589;28;20107;-44
2024/03/17 15:35:27;;;;;;;2.40;0.88;;;;;;;;;;4995177;28;20058;-46
2024/03/17 15:38:11;;;;;;;4.07;1.23;;;;;;;;;;4995919;28;20065;-46
2024/03/17 15:40:43;;;;;;;2.05;0.77;;;;;;;;;;4996661;28;20565;-49
2024/03/17 15:43:10;;;;;;;1.42;0.80;;;;;;;;;;4997368;28;20049;-62
2024/03/17 15:45:37;;;;;;;3.50;0.50;;;;;;;;;;4992013;28;21278;-65
2024/03/17 15:48:10;;;;;;;1.02;0.50;;;;;;;;;;4980686;28;20061;-65
2024/03/17 15:50:39;;;;;;;0.65;0.65;;;;;;;;;;4999309;28;20702;-65
2024/03/17 15:53:29;;;;;;;1.83;0.60;;;;;;;;;;4998350;28;20408;-64
2024/03/17 15:56:16;;;;;;;1.17;0.65;;;;;;;;;;5000976;28;20061;-65
2024/03/17 15:59:09;;;;;;;3.47;1.13;;;;;;;;;;5000666;28;20108;-65
2024/03/17 16:01:55;;;;;;;2.20;0.80;;;;;;;;;;4994521;28;20451;-58
2024/03/17 16:04:51;;;;;;;2.22;0.70;;;;;;;;;;4997981;28;20057;-52
2024/03/17 16:07:43;;;;;;;2.30;0.60;;;;;;;;;;4993791;28;20058;-50
2024/03/17 16:10:34;;;;;;;1.77;0.70;;;;;;;;;;4995245;28;20301;-53
2024/03/17 16:13:23;;;;;;;1.48;0.80;;;;;;;;;;4989625;28;21175;-51
2024/03/17 16:16:18;;;;;;;2.50;0.70;;;;;;;;;;4989525;28;20054;-49
2024/03/17 16:19:07;;;;;;;1.17;0.60;;;;;;;;;;4991464;28;20469;-62
2024/03/17 16:21:57;;;;;;;1.33;0.60;;;;;;;;;;4995511;28;20065;-48
2024/03/17 16:24:50;;;;;;;3.75;0.98;;;;;;;;;;4995189;28;20061;-48
2024/03/17 16:27:43;;;;;;;2.90;0.90;;;;;;;;;;4990969;28;20467;-50
2024/03/17 16:30:29;;;;;;;1.27;0.75;;;;;;;;;;4992169;28;20054;-52
2024/03/17 16:33:26;;;;;;;1.65;0.95;;;;;;;;;;4991144;28;20058;-49
2024/03/17 16:36:13;;;;;;;2.65;1.02;;;;;;;;;;4989946;28;20542;-50
2024/03/17 16:39:06;;;;;;;1.70;0.90;;;;;;;;;;4993348;28;20054;-57
2024/03/17 16:41:57;;;;;;;0.88;0.73;;;;;;;;;;4994745;28;20061;-49
2024/03/17 16:44:46;;;;;;;2.10;0.80;;;;;;;;;;4990845;28;20104;-49
2024/03/17 16:47:39;;;;;;;2.35;0.90;;;;;;;;;;4994353;28;20056;-47
2024/03/17 16:50:25;;;;;;;2.65;0.80;;;;;;;;;;4997116;28;20050;-51
2024/03/17 16:53:18;;;;;;;4.18;1.27;;;;;;;;;;5006204;28;20456;-51
2024/03/17 16:55:45;;;;;;;1.55;0.65;;;;;;;;;;4992693;28;20057;-54
2024/03/17 16:58:17;;;;;;;2.40;0.88;;;;;;;;;;4992390;28;20050;-60
2024/03/17 17:00:43;;;;;;;1.85;0.82;;;;;;;;;;4990247;28;20077;-49
2024/03/17 17:03:10;;;;;;;4.10;0.70;;;;;;;;;;4991029;28;20057;-49